EW7237 Weather Reports


Display with metric or nautical units.
time (UTC)temp
F
wind
direction
speed
MPH
gust
MPH
rain 1hr
in
rain 24hr
in
rain mn
in
humidity
%
barometer
mb
20221205203002 32 297 0.0 0.0 0.00 0.12 0.12 97 1020.8
20221205201503 32 297 0.0 0.0 0.00 0.12 0.12 97 1020.9
20221205200100 32 297 0.0 0.0 0.00 0.12 0.12 97 1020.8
20221205194558 32 297 0.0 0.0 0.01 0.12 0.12 97 1020.8
20221205193104 32 297 0.0 0.0 0.02 0.12 0.12 97 1020.8
20221205191552 32 297 0.0 0.0 0.02 0.12 0.12 97 1020.8
20221205190052 32 133 0.0 0.0 0.03 0.12 0.12 96 1020.6
20221205184548 33 165 0.0 0.0 0.03 0.11 0.11 96 1020.7
20221205183045 33 232 0.0 0.0 0.04 0.10 0.10 96 1020.8
20221205181543 33 145 0.0 0.0 0.06 0.10 0.10 96 1020.9
20221205180047 33 162 0.0 0.0 0.06 0.09 0.09 95 1021.0
20221205174607 34 166 0.0 0.0 0.06 0.08 0.08 95 1020.9
20221205173043 34 237 0.0 0.0 0.05 0.06 0.06 94 1020.8
20221205171533 35 176 0.0 2.0 0.04 0.05 0.05 94 1020.9
20221205170027 35 243 0.0 1.0 0.02 0.03 0.03 93 1020.8
20221205164527 36 211 0.0 1.0 0.02 0.02 0.02 93 1020.5
20221205163022 36 252 0.0 1.0 0.01 0.02 0.02 92 1020.5
20221205161532 36 301 0.0 2.0 0.00 0.01 0.01 91 1020.6
20221205160017 37 305 0.0 3.0 0.00 0.01 0.01 90 1020.3
20221205154515 37 226 1.0 9.0 0.00 0.01 0.01 89 1020.1
20221205153013 38 61 0.0 1.0 0.00 0.01 0.01 88 1020.0
20221205151510 38 302 0.0 3.0 0.00 0.01 0.01 87 1019.9
20221205150009 38 291 0.0 2.0 0.00 0.01 0.01 87 1019.8
20221205144506 38 297 0.0 2.0 0.00 0.01 0.01 86 1019.9
20221205143004 38 216 0.0 5.0 0.00 0.01 0.01 86 1020.0
20221205141502 39 296 0.0 1.0 0.00 0.01 0.01 87 1020.0
20221205140114 39 304 0.0 0.0 0.00 0.01 0.01 88 1019.7
20221205134600 39 270 0.0 1.0 0.00 0.01 0.01 86 1019.8
20221205133056 39 306 0.0 6.0 0.00 0.01 0.01 86 1019.6
20221205131554 39 298 0.0 5.0 0.00 0.01 0.01 86 1019.8
20221205130051 39 316 1.0 5.0 0.00 0.01 0.01 87 1019.8
20221205124549 39 290 0.0 0.0 0.00 0.01 0.01 88 1019.9
20221205123103 39 293 0.0 4.0 0.00 0.01 0.01 87 1019.8
20221205121543 39 266 0.0 2.0 0.00 0.01 0.01 88 1020.0
20221205120051 39 306 0.0 3.0 0.00 0.01 0.01 88 1020.1
20221205114538 39 338 0.0 3.0 0.00 0.01 0.01 89 1020.0
20221205113027 39 314 0.0 3.0 0.00 0.01 0.01 92 1019.9
20221205111528 39 290 0.0 0.0 0.00 0.01 0.01 95 1020.0
20221205110019 38 300 0.0 0.0 0.01 0.01 0.01 96 1020.1
20221205104518 37 300 0.0 0.0 0.01 0.01 0.01 95 1020.0
20221205103012 37 300 0.0 0.0 0.01 0.01 0.01 95 1020.1
20221205101509 36 261 0.0 0.0 0.01 0.01 0.01 95 1020.2
20221205100004 36 261 0.0 0.0 0.00 0.00 0.00 96 1020.3
20221205094504 35 261 0.0 0.0 0.00 0.00 0.00 96 1020.3
20221205093101 35 261 0.0 0.0 0.00 0.00 0.00 96 1020.1
20221205091629 35 261 0.0 0.0 0.00 0.00 0.00 96 1020.0
20221205090051 35 261 0.0 0.0 0.00 0.00 0.00 96 1019.9
20221205084550 34 261 0.0 0.0 0.00 0.00 0.00 96 1019.8
20221205083044 34 261 0.0 0.0 0.00 0.00 0.00 95 1019.7
20221205081541 34 261 0.0 0.0 0.00 0.00 0.00 95 1019.5
20221205080041 34 261 0.0 0.0 0.00 0.00 0.00 96 1019.4
20221205074535 34 261 0.0 0.0 0.00 0.00 0.00 96 1019.3
20221205073038 33 261 0.0 0.0 0.00 0.00 0.00 96 1019.1
20221205071528 33 261 0.0 0.0 0.00 0.00 0.00 96 1018.9
20221205070029 33 261 0.0 0.0 0.00 0.00 0.00 96 1018.9
20221205064524 33 261 0.0 0.0 0.00 0.00 0.00 96 1018.9
20221205063022 33 306 0.0 0.0 0.00 0.00 0.00 96 1018.9
20221205061522 33 224 0.0 1.0 0.00 0.00 0.00 95 1018.6
20221205060017 33 154 0.0 0.0 0.00 0.00 0.00 95 1018.4
20221205054532 34 243 0.0 0.0 0.00 0.00 0.00 95 1018.3
20221205053009 34 192 0.0 0.0 0.00 0.00 0.00 94 1018.3
20221205051507 34 188 0.0 0.0 0.00 0.00 0.00 94 1018.1
20221205050004 34 221 0.0 0.0 0.00 0.00 0.00 94 1018.1
20221205044502 34 272 0.0 0.0 0.00 0.00 0.00 95 1018.1
20221205043100 34 293 0.0 0.0 0.00 0.00 0.00 95 1018.2
20221205041557 34 284 0.0 2.0 0.00 0.00 0.00 95 1018.2
20221205040053 33 313 0.0 4.0 0.00 0.00 0.00 96 1018.2
20221205034550 33 271 0.0 2.0 0.00 0.00 0.00 96 1017.9
20221205033050 33 300 0.0 0.0 0.00 0.00 0.00 97 1018.0
20221205031544 33 291 0.0 2.0 0.00 0.00 0.00 97 1017.7
20221205030042 33 302 0.0 2.0 0.00 0.00 0.00 97 1017.6
20221205024546 33 315 0.0 2.0 0.00 0.00 0.00 97 1017.1
20221205023040 33 307 0.0 3.0 0.00 0.00 0.00 97 1017.1
20221205021532 33 312 0.0 0.0 0.00 0.00 0.00 97 1016.7
20221205020026 33 307 0.0 0.0 0.00 0.00 0.00 97 1016.7
20221205014523 33 338 0.0 0.0 0.00 0.00 0.00 97 1016.1
20221205013020 33 308 0.0 0.0 0.00 0.00 0.00 97 1016.1
20221205011517 33 300 0.0 0.0 0.00 0.00 0.00 97 1015.9
20221205010013 33 278 0.0 0.0 0.00 0.00 0.00 97 1015.4
20221205004510 33 207 0.0 0.0 0.00 0.00 0.00 97 1015.3
20221205003009 33 284 0.0 0.0 0.00 0.00 0.00 97 1015.4
20221205001505 33 285 0.0 0.0 0.00 0.00 0.00 97 1015.2
20221205000002 33 271 0.0 1.0 0.00 0.00 0.00 96 1015.2
20221204234612 33 292 0.0 3.0 0.00 0.00 0.00 96 1014.9
20221204233058 33 289 0.0 2.0 0.00 0.00 0.00 96 1014.9
20221204231555 33 158 0.0 0.0 0.00 0.00 0.00 96 1015.1
20221204230053 33 268 0.0 1.0 0.00 0.00 0.00 96 1015.2
20221204224551 33 236 0.0 0.0 0.00 0.00 0.00 96 1015.2
20221204223051 33 265 0.0 0.0 0.00 0.00 0.00 96 1015.1
20221204221554 33 293 0.0 1.0 0.00 0.00 0.00 96 1015.0
20221204220040 33 298 0.0 0.0 0.00 0.00 0.00 96 1014.6
20221204214556 33 278 0.0 0.0 0.00 0.00 0.00 96 1014.2
20221204213046 33 234 0.0 1.0 0.00 0.00 0.00 96 1014.2
20221204211533 33 278 0.0 0.0 0.00 0.00 0.00 96 1014.4
20221204210036 33 271 0.0 0.0 0.00 0.00 0.00 95 1014.5
20221204204531 33 236 0.0 2.0 0.00 0.00 0.00 95 1014.4